GLD1134 SSPG-SBCG
Flight info
| Callsign | GLD1134 |
|---|---|
| Flight time | 1h 16m |
| Altitude | 65000 |
| Route | 2534S04837W REA 2525S04906W/N0520F380 IFR DCT SERGI UZ63 FIGOS DCT |
| Aircraft | C750/M-SDFGIRY/S |
Departure
| Time | 2026-04-28 00:30 |
|---|---|
| Airport | Paranaguá Airport (SSPG) |
Arrival
| Time | 2026-04-28 01:47 |
|---|---|
| Airport | Campo Grande Airport (SBCG) |
| Time | Latitude | Longitude | Altitude | Speed | Heading |
|---|---|---|---|---|---|
| 2026-04-28 00:07 | -25.53816 | -48.53034 | 51 ft | 0 kts | 316° |
| 2026-04-28 00:17 | -25.53817 | -48.53034 | 57 ft | 2 kts | 316° |
| 2026-04-28 00:17 | -25.53828 | -48.53019 | 51 ft | 2 kts | 273° |
| 2026-04-28 00:17 | -25.53824 | -48.53009 | 53 ft | 2 kts | 221° |
| 2026-04-28 00:17 | -25.53815 | -48.53001 | 52 ft | 2 kts | 216° |
| 2026-04-28 00:18 | -25.53807 | -48.52994 | 53 ft | 2 kts | 215° |
| 2026-04-28 00:18 | -25.53805 | -48.52993 | 53 ft | 0 kts | 215° |
| 2026-04-28 00:23 | -25.53806 | -48.52994 | 53 ft | 1 kts | 215° |
| 2026-04-28 00:23 | -25.53820 | -48.53003 | 54 ft | 3 kts | 203° |
| 2026-04-28 00:23 | -25.53847 | -48.52999 | 55 ft | 4 kts | 155° |
| 2026-04-28 00:23 | -25.53851 | -48.52996 | 55 ft | 0 kts | 147° |
| 2026-04-28 00:26 | -25.53854 | -48.52994 | 55 ft | 2 kts | 147° |
| 2026-04-28 00:26 | -25.53875 | -48.52975 | 55 ft | 6 kts | 135° |
| 2026-04-28 00:26 | -25.53865 | -48.52920 | 55 ft | 9 kts | 44° |
| 2026-04-28 00:27 | -25.53826 | -48.52878 | 57 ft | 7 kts | 46° |
| 2026-04-28 00:27 | -25.53796 | -48.52841 | 57 ft | 6 kts | 47° |
| 2026-04-28 00:27 | -25.53761 | -48.52798 | 57 ft | 9 kts | 48° |
| 2026-04-28 00:27 | -25.53715 | -48.52741 | 55 ft | 11 kts | 48° |
| 2026-04-28 00:28 | -25.53664 | -48.52677 | 56 ft | 11 kts | 48° |
| 2026-04-28 00:28 | -25.53616 | -48.52615 | 56 ft | 10 kts | 50° |
| 2026-04-28 00:28 | -25.53588 | -48.52576 | 56 ft | 0 kts | 54° |
| 2026-04-28 00:28 | -25.53585 | -48.52558 | 56 ft | 4 kts | 65° |
| 2026-04-28 00:29 | -25.53575 | -48.52558 | 56 ft | 2 kts | 310° |
| 2026-04-28 00:29 | -25.53581 | -48.52579 | 56 ft | 4 kts | 225° |
| 2026-04-28 00:29 | -25.53588 | -48.52586 | 56 ft | 0 kts | 223° |
| 2026-04-28 00:29 | -25.53591 | -48.52589 | 56 ft | 4 kts | 223° |
| 2026-04-28 00:30 | -25.53758 | -48.52796 | 55 ft | 92 kts | 228° |
| 2026-04-28 00:30 | -25.54374 | -48.53568 | 193 ft | 155 kts | 229° |
| 2026-04-28 00:30 | -25.55137 | -48.54575 | 635 ft | 183 kts | 229° |
| 2026-04-28 00:30 | -25.56073 | -48.55692 | 966 ft | 215 kts | 218° |
| 2026-04-28 00:31 | -25.57587 | -48.56335 | 1270 ft | 250 kts | 189° |
| 2026-04-28 00:31 | -25.59257 | -48.56112 | 2502 ft | 238 kts | 160° |
| 2026-04-28 00:31 | -25.60239 | -48.55563 | 3234 ft | 242 kts | 147° |
| 2026-04-28 00:31 | -25.61489 | -48.54246 | 4190 ft | 250 kts | 127° |
| 2026-04-28 00:32 | -25.61977 | -48.51739 | 5341 ft | 264 kts | 79° |
| 2026-04-28 00:32 | -25.61095 | -48.50008 | 6178 ft | 261 kts | 43° |
| 2026-04-28 00:32 | -25.60028 | -48.49287 | 6486 ft | 273 kts | 21° |
| 2026-04-28 00:32 | -25.58145 | -48.49129 | 6494 ft | 273 kts | 347° |
| 2026-04-28 00:33 | -25.56563 | -48.50152 | 6495 ft | 269 kts | 312° |
| 2026-04-28 00:33 | -25.55804 | -48.51999 | 6494 ft | 268 kts | 276° |
| 2026-04-28 00:33 | -25.55998 | -48.54032 | 6548 ft | 266 kts | 257° |
| 2026-04-28 00:33 | -25.56405 | -48.56036 | 6544 ft | 267 kts | 260° |
| 2026-04-28 00:34 | -25.56625 | -48.58069 | 6547 ft | 267 kts | 264° |
| 2026-04-28 00:34 | -25.56439 | -48.60101 | 6502 ft | 267 kts | 287° |
| 2026-04-28 00:34 | -25.55727 | -48.62000 | 6546 ft | 268 kts | 294° |
| 2026-04-28 00:34 | -25.54944 | -48.63871 | 6541 ft | 267 kts | 295° |
| 2026-04-28 00:35 | -25.54159 | -48.65739 | 6549 ft | 268 kts | 294° |
| 2026-04-28 00:35 | -25.53357 | -48.67621 | 6545 ft | 274 kts | 295° |
| 2026-04-28 00:35 | -25.52545 | -48.69525 | 6544 ft | 273 kts | 294° |
| 2026-04-28 00:35 | -25.51738 | -48.71431 | 6545 ft | 274 kts | 294° |
| 2026-04-28 00:36 | -25.50930 | -48.73341 | 6543 ft | 274 kts | 294° |
| 2026-04-28 00:36 | -25.50121 | -48.75252 | 6510 ft | 275 kts | 294° |
| 2026-04-28 00:36 | -25.49311 | -48.77162 | 6504 ft | 273 kts | 294° |
| 2026-04-28 00:36 | -25.48486 | -48.79092 | 6508 ft | 274 kts | 295° |
| 2026-04-28 00:37 | -25.47685 | -48.80969 | 6510 ft | 274 kts | 294° |
| 2026-04-28 00:37 | -25.46868 | -48.82876 | 6524 ft | 274 kts | 294° |
| 2026-04-28 00:37 | -25.46049 | -48.84784 | 6530 ft | 274 kts | 294° |
| 2026-04-28 00:37 | -25.45234 | -48.86685 | 6537 ft | 274 kts | 295° |
| 2026-04-28 00:38 | -25.44423 | -48.88594 | 6543 ft | 274 kts | 295° |
| 2026-04-28 00:38 | -25.43614 | -48.90498 | 6549 ft | 274 kts | 294° |
| 2026-04-28 00:38 | -25.42801 | -48.92402 | 6557 ft | 274 kts | 294° |
| 2026-04-28 00:38 | -25.42050 | -48.94329 | 6520 ft | 274 kts | 284° |
| 2026-04-28 00:39 | -25.41886 | -48.96416 | 6561 ft | 273 kts | 269° |
| 2026-04-28 00:39 | -25.41927 | -48.98532 | 6580 ft | 272 kts | 268° |
| 2026-04-28 00:39 | -25.41985 | -49.00630 | 6588 ft | 272 kts | 267° |
| 2026-04-28 00:39 | -25.42042 | -49.02726 | 6592 ft | 273 kts | 268° |
| 2026-04-28 00:40 | -25.42099 | -49.04824 | 6594 ft | 273 kts | 268° |
| 2026-04-28 00:40 | -25.42159 | -49.06922 | 6598 ft | 272 kts | 268° |
| 2026-04-28 00:40 | -25.42220 | -49.09034 | 6711 ft | 282 kts | 268° |
| 2026-04-28 00:40 | -25.42279 | -49.11175 | 8028 ft | 266 kts | 269° |
| 2026-04-28 00:41 | -25.41883 | -49.13136 | 9080 ft | 268 kts | 296° |
| 2026-04-28 00:41 | -25.40942 | -49.14932 | 10123 ft | 271 kts | 302° |
| 2026-04-28 00:41 | -25.39884 | -49.16711 | 10701 ft | 288 kts | 304° |
| 2026-04-28 00:41 | -25.38680 | -49.18609 | 10930 ft | 315 kts | 304° |
| 2026-04-28 00:42 | -25.37383 | -49.20678 | 11179 ft | 335 kts | 303° |
| 2026-04-28 00:42 | -25.36081 | -49.22806 | 12081 ft | 333 kts | 303° |
| 2026-04-28 00:42 | -25.34774 | -49.24935 | 12879 ft | 336 kts | 303° |
| 2026-04-28 00:42 | -25.33447 | -49.27073 | 13656 ft | 339 kts | 302° |
| 2026-04-28 00:43 | -25.32110 | -49.29228 | 14400 ft | 341 kts | 302° |
| 2026-04-28 00:43 | -25.30770 | -49.31398 | 15017 ft | 343 kts | 302° |
| 2026-04-28 00:43 | -25.29424 | -49.33577 | 15771 ft | 343 kts | 302° |
| 2026-04-28 00:43 | -25.28073 | -49.35757 | 16508 ft | 345 kts | 303° |
| 2026-04-28 00:44 | -25.26713 | -49.37950 | 17271 ft | 347 kts | 303° |
| 2026-04-28 00:44 | -25.25346 | -49.40158 | 18059 ft | 349 kts | 303° |
| 2026-04-28 00:44 | -25.23968 | -49.42374 | 18758 ft | 351 kts | 303° |
| 2026-04-28 00:44 | -25.22397 | -49.44467 | 19357 ft | 358 kts | 311° |
| 2026-04-28 00:45 | -25.20539 | -49.46335 | 19949 ft | 364 kts | 318° |
| 2026-04-28 00:45 | -25.18553 | -49.48097 | 20620 ft | 368 kts | 318° |
| 2026-04-28 00:45 | -25.16567 | -49.49902 | 21274 ft | 372 kts | 317° |
| 2026-04-28 00:45 | -25.14556 | -49.51732 | 21931 ft | 376 kts | 317° |
| 2026-04-28 00:46 | -25.12520 | -49.53563 | 22634 ft | 380 kts | 317° |
| 2026-04-28 00:46 | -25.10460 | -49.55408 | 23316 ft | 384 kts | 317° |
| 2026-04-28 00:46 | -25.08376 | -49.57285 | 23899 ft | 388 kts | 317° |
| 2026-04-28 00:46 | -25.06281 | -49.59175 | 24482 ft | 391 kts | 317° |
| 2026-04-28 00:47 | -25.04159 | -49.61077 | 25069 ft | 394 kts | 317° |
| 2026-04-28 00:47 | -25.02019 | -49.62985 | 25564 ft | 399 kts | 317° |
| 2026-04-28 00:47 | -24.99824 | -49.64946 | 26134 ft | 402 kts | 317° |
| 2026-04-28 00:47 | -24.97680 | -49.66880 | 26702 ft | 405 kts | 317° |
| 2026-04-28 00:48 | -24.95466 | -49.68890 | 27267 ft | 408 kts | 317° |
| 2026-04-28 00:48 | -24.93292 | -49.70859 | 27797 ft | 412 kts | 317° |
| 2026-04-28 00:48 | -24.91069 | -49.72868 | 28338 ft | 415 kts | 317° |
| 2026-04-28 00:48 | -24.88866 | -49.74855 | 28863 ft | 419 kts | 317° |
| 2026-04-28 00:49 | -24.86582 | -49.76916 | 29472 ft | 421 kts | 316° |
| 2026-04-28 00:49 | -24.84279 | -49.78997 | 29963 ft | 425 kts | 316° |
| 2026-04-28 00:49 | -24.82016 | -49.81039 | 30414 ft | 428 kts | 316° |
| 2026-04-28 00:49 | -24.79704 | -49.83123 | 30864 ft | 430 kts | 317° |
| 2026-04-28 00:50 | -24.77388 | -49.85197 | 31397 ft | 429 kts | 317° |
| 2026-04-28 00:50 | -24.75033 | -49.87271 | 32095 ft | 425 kts | 317° |
| 2026-04-28 00:50 | -24.72733 | -49.89300 | 32739 ft | 423 kts | 317° |
| 2026-04-28 00:50 | -24.70453 | -49.91328 | 33375 ft | 420 kts | 317° |
| 2026-04-28 00:51 | -24.68186 | -49.93345 | 34035 ft | 418 kts | 317° |
| 2026-04-28 00:51 | -24.65923 | -49.95348 | 34552 ft | 417 kts | 318° |
| 2026-04-28 00:51 | -24.63666 | -49.97342 | 35073 ft | 416 kts | 317° |
| 2026-04-28 00:51 | -24.61425 | -49.99326 | 35720 ft | 411 kts | 318° |
| 2026-04-28 00:52 | -24.59204 | -50.01293 | 36358 ft | 408 kts | 318° |
| 2026-04-28 00:52 | -24.57000 | -50.03241 | 36986 ft | 405 kts | 318° |
| 2026-04-28 00:52 | -24.54811 | -50.05176 | 37625 ft | 402 kts | 318° |
| 2026-04-28 00:52 | -24.52628 | -50.07105 | 38112 ft | 404 kts | 318° |
| 2026-04-28 00:53 | -24.50455 | -50.09075 | 38081 ft | 416 kts | 317° |
| 2026-04-28 00:53 | -24.48180 | -50.11172 | 38088 ft | 427 kts | 317° |
| 2026-04-28 00:53 | -24.45874 | -50.13228 | 38092 ft | 438 kts | 319° |
| 2026-04-28 00:54 | -24.40962 | -50.17501 | 38094 ft | 456 kts | 319° |
| 2026-04-28 00:54 | -24.36015 | -50.21907 | 38094 ft | 460 kts | 319° |
| 2026-04-28 00:55 | -24.31044 | -50.26267 | 38091 ft | 461 kts | 319° |
| 2026-04-28 00:55 | -24.26049 | -50.30681 | 38077 ft | 461 kts | 319° |
| 2026-04-28 00:56 | -24.21044 | -50.35092 | 38074 ft | 461 kts | 319° |
| 2026-04-28 00:56 | -24.16038 | -50.39511 | 38072 ft | 462 kts | 319° |
| 2026-04-28 00:57 | -24.11026 | -50.43914 | 38081 ft | 462 kts | 319° |
| 2026-04-28 00:57 | -24.06012 | -50.48319 | 38070 ft | 463 kts | 319° |
| 2026-04-28 00:58 | -24.00996 | -50.52743 | 38074 ft | 463 kts | 319° |
| 2026-04-28 00:58 | -23.95974 | -50.57157 | 38069 ft | 463 kts | 319° |
| 2026-04-28 00:59 | -23.90955 | -50.61569 | 38077 ft | 463 kts | 319° |
| 2026-04-28 00:59 | -23.85912 | -50.65981 | 38087 ft | 465 kts | 319° |
| 2026-04-28 01:00 | -23.80875 | -50.70390 | 38085 ft | 463 kts | 319° |
| 2026-04-28 01:00 | -23.75841 | -50.74790 | 38089 ft | 463 kts | 319° |
| 2026-04-28 01:01 | -23.70798 | -50.79194 | 38081 ft | 464 kts | 319° |
| 2026-04-28 01:01 | -23.65786 | -50.83567 | 38063 ft | 465 kts | 319° |
| 2026-04-28 01:02 | -23.61551 | -50.87257 | 38064 ft | 465 kts | 319° |
| 2026-04-28 01:02 | -23.55648 | -50.92396 | 38058 ft | 465 kts | 319° |
| 2026-04-28 01:03 | -23.50594 | -50.96796 | 38033 ft | 465 kts | 319° |
| 2026-04-28 01:03 | -23.45510 | -51.01218 | 38053 ft | 468 kts | 319° |
| 2026-04-28 01:04 | -23.40425 | -51.05633 | 38050 ft | 468 kts | 319° |
| 2026-04-28 01:04 | -23.36156 | -51.09340 | 38049 ft | 468 kts | 319° |
| 2026-04-28 01:05 | -23.31547 | -51.14290 | 38047 ft | 465 kts | 309° |
| 2026-04-28 01:05 | -23.27309 | -51.19645 | 38054 ft | 469 kts | 310° |
| 2026-04-28 01:06 | -23.23046 | -51.25013 | 38060 ft | 468 kts | 310° |
| 2026-04-28 01:06 | -23.18794 | -51.30377 | 38053 ft | 468 kts | 310° |
| 2026-04-28 01:07 | -23.14535 | -51.35730 | 38055 ft | 468 kts | 310° |
| 2026-04-28 01:07 | -23.10273 | -51.41094 | 38047 ft | 471 kts | 310° |
| 2026-04-28 01:08 | -23.05983 | -51.46478 | 38054 ft | 471 kts | 310° |
| 2026-04-28 01:08 | -23.01695 | -51.51859 | 38051 ft | 471 kts | 310° |
| 2026-04-28 01:09 | -22.97405 | -51.57234 | 38052 ft | 471 kts | 310° |
| 2026-04-28 01:09 | -22.93117 | -51.62602 | 38049 ft | 470 kts | 310° |
| 2026-04-28 01:10 | -22.88826 | -51.67967 | 38041 ft | 471 kts | 310° |
| 2026-04-28 01:10 | -22.84529 | -51.73335 | 38044 ft | 471 kts | 310° |
| 2026-04-28 01:11 | -22.80303 | -51.78696 | 38045 ft | 471 kts | 309° |
| 2026-04-28 01:11 | -22.76041 | -51.84139 | 38048 ft | 470 kts | 310° |
| 2026-04-28 01:12 | -22.71778 | -51.89537 | 38037 ft | 473 kts | 309° |
| 2026-04-28 01:12 | -22.67512 | -51.94963 | 38030 ft | 473 kts | 310° |
| 2026-04-28 01:13 | -22.63234 | -52.00378 | 38031 ft | 473 kts | 310° |
| 2026-04-28 01:13 | -22.56828 | -52.08492 | 38037 ft | 473 kts | 310° |
| 2026-04-28 01:14 | -22.52569 | -52.13878 | 38031 ft | 475 kts | 310° |
| 2026-04-28 01:14 | -22.48273 | -52.19304 | 38034 ft | 475 kts | 310° |
| 2026-04-28 01:15 | -22.43975 | -52.24728 | 38029 ft | 475 kts | 310° |
| 2026-04-28 01:15 | -22.39675 | -52.30148 | 38035 ft | 474 kts | 310° |
| 2026-04-28 01:16 | -22.35377 | -52.35560 | 38029 ft | 478 kts | 310° |
| 2026-04-28 01:16 | -22.31036 | -52.41020 | 38028 ft | 478 kts | 310° |
| 2026-04-28 01:17 | -22.26702 | -52.46465 | 38026 ft | 478 kts | 310° |
| 2026-04-28 01:17 | -22.22370 | -52.51904 | 38025 ft | 478 kts | 310° |
| 2026-04-28 01:18 | -22.18037 | -52.57337 | 38032 ft | 477 kts | 310° |
| 2026-04-28 01:18 | -22.13691 | -52.62782 | 38026 ft | 480 kts | 310° |
| 2026-04-28 01:19 | -22.09329 | -52.68239 | 38030 ft | 480 kts | 310° |
| 2026-04-28 01:19 | -22.04971 | -52.73689 | 38029 ft | 479 kts | 310° |
| 2026-04-28 01:20 | -22.00612 | -52.79132 | 38029 ft | 479 kts | 310° |
| 2026-04-28 01:20 | -21.96254 | -52.84568 | 38025 ft | 481 kts | 310° |
| 2026-04-28 01:21 | -21.91868 | -52.90034 | 38033 ft | 482 kts | 310° |
| 2026-04-28 01:21 | -21.87514 | -52.95455 | 38030 ft | 481 kts | 310° |
| 2026-04-28 01:22 | -21.83131 | -53.00906 | 38035 ft | 482 kts | 310° |
| 2026-04-28 01:22 | -21.79300 | -53.05665 | 38040 ft | 479 kts | 310° |
| 2026-04-28 01:23 | -21.75070 | -53.10916 | 38031 ft | 484 kts | 310° |
| 2026-04-28 01:23 | -21.70659 | -53.16386 | 38028 ft | 484 kts | 310° |
| 2026-04-28 01:24 | -21.66280 | -53.21811 | 37946 ft | 485 kts | 310° |
| 2026-04-28 01:24 | -21.64056 | -53.24564 | 37276 ft | 487 kts | 310° |
| 2026-04-28 01:24 | -21.61823 | -53.27325 | 36633 ft | 478 kts | 310° |
| 2026-04-28 01:25 | -21.59689 | -53.29963 | 36022 ft | 470 kts | 310° |
| 2026-04-28 01:25 | -21.57547 | -53.32613 | 35402 ft | 475 kts | 310° |
| 2026-04-28 01:25 | -21.55365 | -53.35312 | 34782 ft | 481 kts | 310° |
| 2026-04-28 01:25 | -21.53171 | -53.38018 | 34146 ft | 476 kts | 310° |
| 2026-04-28 01:26 | -21.51008 | -53.40685 | 33486 ft | 470 kts | 310° |
| 2026-04-28 01:26 | -21.48873 | -53.43318 | 32865 ft | 465 kts | 309° |
| 2026-04-28 01:26 | -21.46758 | -53.45929 | 32260 ft | 462 kts | 309° |
| 2026-04-28 01:26 | -21.44727 | -53.48591 | 31640 ft | 457 kts | 304° |
| 2026-04-28 01:27 | -21.42903 | -53.51373 | 31053 ft | 455 kts | 303° |
| 2026-04-28 01:27 | -21.41105 | -53.54150 | 30455 ft | 452 kts | 303° |
| 2026-04-28 01:27 | -21.39295 | -53.56894 | 29823 ft | 449 kts | 304° |
| 2026-04-28 01:27 | -21.37489 | -53.59601 | 29234 ft | 444 kts | 304° |
| 2026-04-28 01:28 | -21.35710 | -53.62293 | 28643 ft | 441 kts | 304° |
| 2026-04-28 01:28 | -21.33952 | -53.64974 | 28068 ft | 437 kts | 304° |
| 2026-04-28 01:28 | -21.32207 | -53.67621 | 27494 ft | 432 kts | 304° |
| 2026-04-28 01:28 | -21.30473 | -53.70237 | 26927 ft | 428 kts | 304° |
| 2026-04-28 01:29 | -21.28757 | -53.72829 | 26365 ft | 424 kts | 304° |
| 2026-04-28 01:29 | -21.27055 | -53.75406 | 25805 ft | 421 kts | 304° |
| 2026-04-28 01:29 | -21.25368 | -53.77957 | 25253 ft | 418 kts | 304° |
| 2026-04-28 01:29 | -21.23691 | -53.80488 | 24701 ft | 414 kts | 304° |
| 2026-04-28 01:30 | -21.22033 | -53.82991 | 24165 ft | 411 kts | 304° |
| 2026-04-28 01:30 | -21.20388 | -53.85474 | 23623 ft | 407 kts | 304° |
| 2026-04-28 01:30 | -21.18755 | -53.87939 | 23039 ft | 403 kts | 305° |
| 2026-04-28 01:30 | -21.17136 | -53.90379 | 22514 ft | 400 kts | 305° |
| 2026-04-28 01:31 | -21.15531 | -53.92797 | 21987 ft | 398 kts | 305° |
| 2026-04-28 01:31 | -21.13936 | -53.95201 | 21468 ft | 395 kts | 305° |
| 2026-04-28 01:31 | -21.12348 | -53.97592 | 20949 ft | 392 kts | 305° |
| 2026-04-28 01:31 | -21.10775 | -53.99960 | 20432 ft | 389 kts | 305° |
| 2026-04-28 01:32 | -21.09212 | -54.02312 | 19919 ft | 387 kts | 305° |
| 2026-04-28 01:32 | -21.07659 | -54.04647 | 19411 ft | 384 kts | 305° |
| 2026-04-28 01:32 | -21.06114 | -54.06970 | 18908 ft | 381 kts | 305° |
| 2026-04-28 01:32 | -21.04581 | -54.09274 | 18407 ft | 378 kts | 305° |
| 2026-04-28 01:33 | -21.03061 | -54.11556 | 17871 ft | 375 kts | 305° |
| 2026-04-28 01:33 | -21.01548 | -54.13827 | 17376 ft | 373 kts | 305° |
| 2026-04-28 01:33 | -21.00046 | -54.16082 | 16882 ft | 371 kts | 305° |
| 2026-04-28 01:33 | -20.98553 | -54.18324 | 16397 ft | 369 kts | 305° |
| 2026-04-28 01:34 | -20.97064 | -54.20555 | 15913 ft | 367 kts | 305° |
| 2026-04-28 01:34 | -20.95583 | -54.22775 | 15430 ft | 365 kts | 305° |
| 2026-04-28 01:34 | -20.94114 | -54.24977 | 15042 ft | 361 kts | 305° |
| 2026-04-28 01:34 | -20.92656 | -54.27160 | 15044 ft | 362 kts | 305° |
| 2026-04-28 01:35 | -20.91195 | -54.29350 | 14968 ft | 366 kts | 305° |
| 2026-04-28 01:35 | -20.89704 | -54.31625 | 14291 ft | 366 kts | 302° |
| 2026-04-28 01:35 | -20.88413 | -54.33964 | 13503 ft | 363 kts | 300° |
| 2026-04-28 01:35 | -20.87138 | -54.36268 | 12677 ft | 357 kts | 300° |
| 2026-04-28 01:36 | -20.85870 | -54.38522 | 11969 ft | 349 kts | 301° |
| 2026-04-28 01:36 | -20.84645 | -54.40711 | 11585 ft | 341 kts | 300° |
| 2026-04-28 01:36 | -20.83482 | -54.42806 | 11159 ft | 320 kts | 300° |
| 2026-04-28 01:36 | -20.82379 | -54.44787 | 10749 ft | 301 kts | 300° |
| 2026-04-28 01:37 | -20.81332 | -54.46664 | 10354 ft | 285 kts | 300° |
| 2026-04-28 01:37 | -20.80335 | -54.48451 | 9991 ft | 276 kts | 300° |
| 2026-04-28 01:37 | -20.79356 | -54.50205 | 9602 ft | 273 kts | 300° |
| 2026-04-28 01:37 | -20.78385 | -54.51943 | 9248 ft | 273 kts | 301° |
| 2026-04-28 01:38 | -20.77412 | -54.53686 | 8890 ft | 273 kts | 300° |
| 2026-04-28 01:38 | -20.76435 | -54.55437 | 8531 ft | 273 kts | 301° |
| 2026-04-28 01:38 | -20.75462 | -54.57178 | 8175 ft | 272 kts | 301° |
| 2026-04-28 01:38 | -20.74495 | -54.58908 | 7814 ft | 270 kts | 301° |
| 2026-04-28 01:39 | -20.73536 | -54.60624 | 7465 ft | 268 kts | 301° |
| 2026-04-28 01:39 | -20.72904 | -54.61753 | 7229 ft | 267 kts | 301° |
| 2026-04-28 01:39 | -20.71628 | -54.64035 | 6763 ft | 267 kts | 301° |
| 2026-04-28 01:39 | -20.70994 | -54.65168 | 6534 ft | 269 kts | 301° |
| 2026-04-28 01:40 | -20.69709 | -54.67464 | 6043 ft | 269 kts | 301° |
| 2026-04-28 01:40 | -20.68749 | -54.69178 | 5692 ft | 268 kts | 301° |
| 2026-04-28 01:40 | -20.67825 | -54.70828 | 5334 ft | 252 kts | 301° |
| 2026-04-28 01:40 | -20.66936 | -54.72357 | 4986 ft | 234 kts | 306° |
| 2026-04-28 01:41 | -20.65891 | -54.73594 | 4810 ft | 214 kts | 314° |
| 2026-04-28 01:41 | -20.65223 | -54.74366 | 4746 ft | 206 kts | 313° |
| 2026-04-28 01:41 | -20.63948 | -54.75860 | 4574 ft | 208 kts | 313° |
| 2026-04-28 01:41 | -20.63281 | -54.76640 | 4468 ft | 212 kts | 314° |
| 2026-04-28 01:42 | -20.62274 | -54.77812 | 4300 ft | 216 kts | 313° |
| 2026-04-28 01:42 | -20.61139 | -54.78857 | 4053 ft | 217 kts | 335° |
| 2026-04-28 01:42 | -20.59695 | -54.79051 | 3947 ft | 202 kts | 8° |
| 2026-04-28 01:42 | -20.58488 | -54.78485 | 3988 ft | 186 kts | 38° |
| 2026-04-28 01:43 | -20.57531 | -54.77566 | 4026 ft | 188 kts | 43° |
| 2026-04-28 01:43 | -20.56526 | -54.76618 | 4026 ft | 188 kts | 43° |
| 2026-04-28 01:43 | -20.55553 | -54.75682 | 3812 ft | 182 kts | 44° |
| 2026-04-28 01:43 | -20.54674 | -54.74833 | 3575 ft | 163 kts | 44° |
| 2026-04-28 01:44 | -20.53881 | -54.74068 | 3386 ft | 145 kts | 44° |
| 2026-04-28 01:44 | -20.53177 | -54.73383 | 3209 ft | 130 kts | 45° |
| 2026-04-28 01:44 | -20.52519 | -54.72743 | 3047 ft | 126 kts | 45° |
| 2026-04-28 01:44 | -20.51869 | -54.72113 | 2892 ft | 128 kts | 46° |
| 2026-04-28 01:45 | -20.51213 | -54.71477 | 2746 ft | 128 kts | 46° |
| 2026-04-28 01:45 | -20.50552 | -54.70836 | 2573 ft | 128 kts | 45° |
| 2026-04-28 01:45 | -20.49884 | -54.70189 | 2407 ft | 131 kts | 44° |
| 2026-04-28 01:45 | -20.49200 | -54.69526 | 2208 ft | 134 kts | 45° |
| 2026-04-28 01:46 | -20.48522 | -54.68851 | 2039 ft | 133 kts | 48° |
| 2026-04-28 01:46 | -20.47836 | -54.68204 | 1860 ft | 132 kts | 44° |
| 2026-04-28 01:46 | -20.47220 | -54.67605 | 1835 ft | 109 kts | 41° |
| 2026-04-28 01:46 | -20.46728 | -54.67136 | 1836 ft | 88 kts | 38° |
| 2026-04-28 01:47 | -20.46443 | -54.66875 | 1834 ft | 52 kts | 44° |
| 2026-04-28 01:47 | -20.46322 | -54.66744 | 1834 ft | 7 kts | 44° |
| 2026-04-28 01:47 | -20.46270 | -54.66694 | 1833 ft | 15 kts | 42° |
| 2026-04-28 01:47 | -20.46193 | -54.66621 | 1834 ft | 14 kts | 38° |
| 2026-04-28 01:48 | -20.46108 | -54.66618 | 1835 ft | 12 kts | 339° |
| 2026-04-28 01:48 | -20.46031 | -54.66650 | 1835 ft | 11 kts | 339° |
| 2026-04-28 01:48 | -20.45960 | -54.66680 | 1835 ft | 11 kts | 337° |
| 2026-04-28 01:48 | -20.45891 | -54.66708 | 1835 ft | 10 kts | 341° |
| 2026-04-28 01:49 | -20.45839 | -54.66742 | 1835 ft | 9 kts | 296° |
| 2026-04-28 01:49 | -20.45837 | -54.66808 | 1835 ft | 8 kts | 265° |
| 2026-04-28 01:49 | -20.45842 | -54.66869 | 1835 ft | 8 kts | 264° |
| 2026-04-28 01:49 | -20.45848 | -54.66926 | 1835 ft | 8 kts | 264° |
| 2026-04-28 01:50 | -20.45853 | -54.66980 | 1835 ft | 7 kts | 264° |
| 2026-04-28 01:50 | -20.45858 | -54.67031 | 1835 ft | 7 kts | 264° |
| 2026-04-28 01:50 | -20.45862 | -54.67079 | 1835 ft | 6 kts | 264° |
| 2026-04-28 01:50 | -20.45867 | -54.67124 | 1835 ft | 6 kts | 255° |
| 2026-04-28 01:51 | -20.45892 | -54.67153 | 1835 ft | 5 kts | 216° |
| 2026-04-28 01:51 | -20.45919 | -54.67177 | 1835 ft | 5 kts | 222° |
| 2026-04-28 01:51 | -20.45921 | -54.67205 | 1835 ft | 3 kts | 298° |
| 2026-04-28 01:51 | -20.45905 | -54.67221 | 1835 ft | 3 kts | 333° |
| 2026-04-28 01:52 | -20.45881 | -54.67215 | 1835 ft | 6 kts | 34° |
| 2026-04-28 01:52 | -20.45858 | -54.67194 | 1835 ft | 2 kts | 30° |
| 2026-04-28 01:52 | -20.45842 | -54.67196 | 1835 ft | 3 kts | 331° |
| 2026-04-28 01:52 | -20.45837 | -54.67201 | 1835 ft | 0 kts | 316° |